createdAt,value
2022-11-06T00:00:47.269Z,97698.63
2022-11-06T00:03:15.803Z,97692.53
2022-11-06T00:06:01.874Z,97704.03
2022-11-06T00:08:34.302Z,97704.16
2022-11-06T00:11:03.503Z,97702.47
2022-11-06T00:13:32.290Z,97701.50
2022-11-06T00:16:04.388Z,97701.63
2022-11-06T00:18:33.085Z,97699.13
2022-11-06T00:21:07.833Z,97692.28
2022-11-06T00:23:37.823Z,97699.13
2022-11-06T00:26:07.733Z,97705.47
2022-11-06T00:28:36.347Z,97706.06
2022-11-06T00:31:05.392Z,97702.00
2022-11-06T00:33:34.064Z,97687.38
2022-11-06T00:36:03.503Z,97693.38
2022-11-06T00:38:32.034Z,97695.88
2022-11-06T00:41:05.240Z,97694.09
2022-11-06T00:43:34.194Z,97697.81
2022-11-06T00:46:03.380Z,97687.25
2022-11-06T00:48:31.981Z,97689.06
2022-11-06T00:51:03.546Z,97696.00
2022-11-06T00:53:32.025Z,97691.09
2022-11-06T00:56:06.790Z,97690.84
2022-11-06T00:58:35.430Z,97692.78
2022-11-06T01:01:08.725Z,97680.44
2022-11-06T01:03:37.446Z,97689.06
2022-11-06T01:06:08.234Z,97686.53
2022-11-06T01:08:37.061Z,97686.66
2022-11-06T01:11:12.353Z,97688.34
2022-11-06T01:13:40.915Z,97688.47
2022-11-06T01:16:11.299Z,97700.09
2022-11-06T01:18:41.755Z,97703.56
2022-11-06T01:21:13.126Z,97694.81
2022-11-06T01:23:42.002Z,97690.38
2022-11-06T01:26:13.135Z,97685.22
2022-11-06T01:28:42.179Z,97688.81
2022-11-06T01:31:13.078Z,97684.50
2022-11-06T01:33:41.620Z,97682.47
2022-11-06T01:36:10.935Z,97686.91
2022-11-06T01:38:41.911Z,97684.38
2022-11-06T01:41:13.497Z,97678.28
2022-11-06T01:43:47.228Z,97680.19
2022-11-06T01:46:16.029Z,97681.16
2022-11-06T01:48:47.665Z,97670.59
2022-11-06T01:51:16.425Z,97670.47
2022-11-06T01:53:46.233Z,97668.09
2022-11-06T01:56:18.134Z,97664.63
2022-11-06T01:58:51.424Z,97669.88
2022-11-06T02:01:20.551Z,97666.63
2022-11-06T02:03:52.991Z,97670.00
2022-11-06T02:06:21.588Z,97666.53
2022-11-06T02:08:50.043Z,97663.88
2022-11-06T02:11:19.867Z,97659.47
2022-11-06T02:13:59.333Z,97649.59
2022-11-06T02:16:39.834Z,97657.66
2022-11-06T02:19:23.775Z,97662.22
2022-11-06T02:22:17.012Z,97663.13
2022-11-06T02:25:08.249Z,97663.13
2022-11-06T02:27:38.861Z,97663.13
2022-11-06T02:30:09.205Z,97654.50
2022-11-06T02:32:40.827Z,97664.94
2022-11-06T02:35:17.443Z,97659.66
2022-11-06T02:37:47.406Z,97653.56
2022-11-06T02:40:16.610Z,97648.41
2022-11-06T02:42:48.869Z,97651.16
2022-11-06T02:45:18.823Z,97651.16
2022-11-06T02:47:48.973Z,97649.47
2022-11-06T02:50:21.195Z,97659.06
2022-11-06T02:52:53.330Z,97654.63
2022-11-06T02:55:26.707Z,97661.81
2022-11-06T02:57:59.937Z,97649.47
2022-11-06T03:00:28.820Z,97657.28
2022-11-06T03:03:00.316Z,97653.06
2022-11-06T03:05:31.949Z,97655.84
2022-11-06T03:08:05.277Z,97650.44
2022-11-06T03:10:37.058Z,97647.09
2022-11-06T03:13:14.845Z,97651.63
2022-11-06T03:15:46.748Z,97655.97
2022-11-06T03:18:18.420Z,97644.69
2022-11-06T03:20:56.999Z,97656.06
2022-11-06T03:23:29.869Z,97647.31
2022-11-06T03:26:02.265Z,97646.50
2022-11-06T03:28:34.881Z,97645.53
2022-11-06T03:31:04.657Z,97647.31
2022-11-06T03:33:37.234Z,97643.72
2022-11-06T03:36:10.156Z,97636.91
2022-11-06T03:38:42.468Z,97639.66
2022-11-06T03:41:15.303Z,97640.38
2022-11-06T03:43:46.734Z,97635.09
2022-11-06T03:46:19.431Z,97637.88
2022-11-06T03:48:49.507Z,97630.06
2022-11-06T03:51:20.674Z,97626.59
2022-11-06T03:53:51.111Z,97636.31
2022-11-06T03:56:25.057Z,97623.00
2022-11-06T03:58:55.560Z,97616.06
2022-11-06T04:01:29.384Z,97614.25
2022-11-06T04:04:01.901Z,97610.06
2022-11-06T04:06:35.162Z,97608.28
2022-11-06T04:09:23.673Z,97604.09
2022-11-06T04:12:10.549Z,97610.06
2022-11-06T04:14:46.666Z,97613.66
2022-11-06T04:17:16.444Z,97604.81
2022-11-06T04:19:53.178Z,97610.06
2022-11-06T04:22:30.875Z,97614.50
2022-11-06T04:25:24.681Z,97612.69
2022-11-06T04:28:04.743Z,97621.44
2022-11-06T04:30:38.533Z,97610.91
2022-11-06T04:33:09.972Z,97611.88
2022-11-06T04:35:49.426Z,97600.59
2022-11-06T04:38:27.259Z,97602.16
2022-11-06T04:41:02.578Z,97598.81
2022-11-06T04:43:37.533Z,97596.28
2022-11-06T04:46:09.440Z,97594.38
2022-11-06T04:48:38.693Z,97586.72
2022-11-06T04:51:09.539Z,97592.59
2022-11-06T04:53:38.850Z,97595.34
2022-11-06T04:56:11.416Z,97582.53
2022-11-06T04:58:40.434Z,97593.66
2022-11-06T05:01:11.153Z,97589.34
2022-11-06T05:03:39.579Z,97591.88
2022-11-06T05:06:08.195Z,97582.28
2022-11-06T05:08:36.531Z,97582.28
2022-11-06T05:11:05.054Z,97587.66
2022-11-06T05:13:35.173Z,97588.38
2022-11-06T05:16:04.035Z,97585.88
2022-11-06T05:18:33.973Z,97578.09
2022-11-06T05:21:20.238Z,97573.66
2022-11-06T05:23:48.758Z,97567.78
2022-11-06T05:26:18.083Z,97575.47
2022-11-06T05:28:46.582Z,97570.19
2022-11-06T05:31:15.095Z,97571.16
2022-11-06T05:33:44.932Z,97570.31
2022-11-06T05:36:13.407Z,97573.06
2022-11-06T05:38:41.788Z,97568.06
2022-11-06T05:41:10.307Z,97576.81
2022-11-06T05:43:38.650Z,97581.94
2022-11-06T05:46:23.857Z,97573.78
2022-11-06T05:48:57.095Z,97577.38
2022-11-06T05:51:25.485Z,97576.53
2022-11-06T05:53:53.860Z,97569.59
2022-11-06T05:56:22.265Z,97571.53
2022-11-06T05:58:50.722Z,97560.00
2022-11-06T06:01:19.382Z,97560.16
2022-11-06T06:03:47.924Z,97538.50
2022-11-06T06:06:20.836Z,97544.06
2022-11-06T06:08:49.624Z,97554.06
2022-11-06T06:11:18.495Z,97546.97
2022-11-06T06:13:48.319Z,97553.34
2022-11-06T06:16:22.320Z,97559.44
2022-11-06T06:18:55.448Z,97548.91
2022-11-06T06:21:27.199Z,97548.91
2022-11-06T06:23:55.610Z,97536.94
2022-11-06T06:26:24.043Z,97542.19
2022-11-06T06:28:52.577Z,97538.59
2022-11-06T06:31:21.293Z,97542.78
2022-11-06T06:33:49.701Z,97545.56
2022-11-06T06:36:18.218Z,97546.50
2022-11-06T06:38:48.111Z,97545.69
2022-11-06T06:41:19.756Z,97540.28
2022-11-06T06:43:49.288Z,97536.81
2022-11-06T06:46:17.919Z,97537.88
2022-11-06T06:48:46.499Z,97544.72
2022-11-06T06:51:17.446Z,97549.16
2022-11-06T06:53:51.157Z,97549.97
2022-11-06T06:56:19.620Z,97547.47
2022-11-06T06:58:48.309Z,97543.88
2022-11-06T07:01:16.837Z,97547.47
2022-11-06T07:03:45.402Z,97559.81
2022-11-06T07:06:13.956Z,97559.44
2022-11-06T07:08:42.455Z,97565.19
2022-11-06T07:11:12.949Z,97579.09
2022-11-06T07:13:41.542Z,97584.34
2022-11-06T07:16:11.620Z,97583.53
2022-11-06T07:18:41.558Z,97594.91
2022-11-06T07:21:11.958Z,97612.38
2022-11-06T07:23:40.754Z,97610.72
2022-11-06T07:26:09.279Z,97607.00
2022-11-06T07:28:39.137Z,97615.97
2022-11-06T07:31:08.602Z,97611.53
2022-11-06T07:33:37.482Z,97603.53
2022-11-06T07:36:11.191Z,97590.47
2022-11-06T07:38:41.096Z,97599.31
2022-11-06T07:41:11.775Z,97593.94
2022-11-06T07:43:42.269Z,97584.25
2022-11-06T07:46:12.524Z,97593.22
2022-11-06T07:48:41.132Z,97594.91
2022-11-06T07:51:11.354Z,97595.63
2022-11-06T07:53:40.247Z,97587.13
2022-11-06T07:56:09.772Z,97600.03
2022-11-06T07:58:39.948Z,97585.06
2022-11-06T08:01:18.148Z,97583.41
2022-11-06T08:03:47.337Z,97583.41
2022-11-06T08:06:15.641Z,97579.09
2022-11-06T08:08:44.045Z,97577.28
2022-11-06T08:11:12.671Z,97585.06
2022-11-06T08:13:41.292Z,97575.50
2022-11-06T08:16:12.507Z,97572.16
2022-11-06T08:18:41.756Z,97564.13
2022-11-06T08:21:10.223Z,97564.34
2022-11-06T08:23:38.801Z,97561.72
2022-11-06T08:26:07.918Z,97549.38
2022-11-06T08:28:36.730Z,97551.91
2022-11-06T08:31:09.568Z,97556.34
2022-11-06T08:33:40.121Z,97549.97
2022-11-06T08:36:09.708Z,97559.81
2022-11-06T08:38:38.071Z,97556.34
2022-11-06T08:41:07.625Z,97556.34
2022-11-06T08:43:36.588Z,97555.38
2022-11-06T08:46:05.814Z,97550.34
2022-11-06T08:48:34.520Z,97553.69
2022-11-06T08:51:05.293Z,97551.06
2022-11-06T08:53:33.987Z,97541.47
2022-11-06T08:56:04.011Z,97536.94
2022-11-06T08:58:32.520Z,97521.13
2022-11-06T09:01:01.031Z,97522.81
2022-11-06T09:03:29.463Z,97511.06
2022-11-06T09:05:57.795Z,97513.94
2022-11-06T09:08:32.747Z,97504.34
2022-11-06T09:11:01.382Z,97492.13
2022-11-06T09:13:29.748Z,97484.25
2022-11-06T09:16:00.847Z,97480.75
2022-11-06T09:18:29.587Z,97478.13
2022-11-06T09:20:58.465Z,97475.38
2022-11-06T09:23:28.198Z,97476.22
2022-11-06T09:25:57.771Z,97470.09
2022-11-06T09:28:26.538Z,97457.88
2022-11-06T09:30:55.735Z,97457.66
2022-11-06T09:33:24.389Z,97455.13
2022-11-06T09:35:52.947Z,97444.59
2022-11-06T09:38:21.462Z,97455.25
2022-11-06T09:40:53.941Z,97435.00
2022-11-06T09:44:03.028Z,97432.25
2022-11-06T09:46:23.845Z,97419.34
2022-11-06T09:48:57.175Z,97429.88
2022-11-06T09:51:32.684Z,97421.00
2022-11-06T09:54:05.051Z,97416.69
2022-11-06T09:56:37.630Z,97418.38
2022-11-06T09:59:07.755Z,97414.66
2022-11-06T10:01:41.606Z,97401.59
2022-11-06T10:04:20.619Z,97398.84
2022-11-06T10:06:49.099Z,97386.63
2022-11-06T10:09:17.926Z,97383.03
2022-11-06T10:11:53.492Z,97384.81
2022-11-06T10:14:33.083Z,97389.38
2022-11-06T10:17:07.908Z,97392.72
2022-11-06T10:19:41.312Z,97381.59
2022-11-06T10:22:16.400Z,97376.34
2022-11-06T10:24:47.385Z,97382.31
2022-11-06T10:27:19.634Z,97374.41
2022-11-06T10:30:01.325Z,97368.31
2022-11-06T10:32:41.718Z,97361.25
2022-11-06T10:35:16.436Z,97347.09
2022-11-06T10:37:49.192Z,97341.00
2022-11-06T10:40:20.023Z,97344.34
2022-11-06T10:42:58.282Z,97346.16
2022-11-06T10:45:28.667Z,97336.44
2022-11-06T10:48:03.413Z,97335.59
2022-11-06T10:50:37.139Z,97336.44
2022-11-06T10:53:08.644Z,97334.66
2022-11-06T10:55:59.973Z,97318.97
2022-11-06T10:58:32.024Z,97318.00
2022-11-06T11:01:03.075Z,97309.25
2022-11-06T11:03:33.182Z,97296.22
2022-11-06T11:06:04.136Z,97304.81
2022-11-06T11:08:34.274Z,97307.34
2022-11-06T11:11:05.188Z,97302.19
2022-11-06T11:13:35.575Z,97300.25
2022-11-06T11:16:05.039Z,97302.06
2022-11-06T11:18:34.242Z,97298.47
2022-11-06T11:21:08.861Z,97281.81
2022-11-06T11:23:37.891Z,97281.94
2022-11-06T11:26:22.575Z,97280.69
2022-11-06T11:28:54.332Z,97274.63
2022-11-06T11:31:29.901Z,97257.16
2022-11-06T11:33:59.740Z,97256.97
2022-11-06T11:36:28.407Z,97250.91
2022-11-06T11:38:56.950Z,97241.03
2022-11-06T11:41:26.357Z,97237.44
2022-11-06T11:44:05.947Z,97232.19
2022-11-06T11:46:34.962Z,97228.56
2022-11-06T11:49:05.464Z,97216.38
2022-11-06T11:51:36.743Z,97220.66
2022-11-06T11:54:08.313Z,97216.22
2022-11-06T11:57:03.672Z,97209.16
2022-11-06T11:59:38.372Z,97207.38
2022-11-06T12:02:15.454Z,97210.00
2022-11-06T12:04:46.343Z,97208.19
2022-11-06T12:07:24.328Z,97209.16
2022-11-06T12:09:52.787Z,97199.31
2022-11-06T12:12:23.725Z,97201.97
2022-11-06T12:15:18.848Z,97204.34
2022-11-06T12:17:51.925Z,97215.84
2022-11-06T12:20:22.708Z,97215.84
2022-11-06T12:22:53.193Z,97211.41
2022-11-06T12:25:24.950Z,97205.31
2022-11-06T12:27:55.286Z,97207.94
2022-11-06T12:30:25.198Z,97204.34
2022-11-06T12:33:03.193Z,97205.03
2022-11-06T12:35:33.509Z,97205.03
2022-11-06T12:38:08.792Z,97198.81
2022-11-06T12:40:40.181Z,97197.97
2022-11-06T12:43:17.574Z,97205.88
2022-11-06T12:46:00.196Z,97204.91
2022-11-06T12:48:45.134Z,97203.09
2022-11-06T12:51:18.228Z,97194.50
2022-11-06T12:53:58.939Z,97194.50
2022-11-06T12:56:33.012Z,97194.50
2022-11-06T12:59:13.036Z,97183.97
2022-11-06T13:01:52.964Z,97181.31
2022-11-06T13:04:31.003Z,97165.50
2022-11-06T13:07:31.642Z,97163.59
2022-11-06T13:10:16.787Z,97159.16
2022-11-06T13:12:52.741Z,97158.31
2022-11-06T13:15:28.214Z,97152.19
2022-11-06T13:18:01.258Z,97138.19
2022-11-06T13:20:35.522Z,97131.97
2022-11-06T13:23:09.776Z,97121.41
2022-11-06T13:25:42.000Z,97120.44
2022-11-06T13:28:23.934Z,97103.66
2022-11-06T13:30:53.408Z,97102.69
2022-11-06T13:33:25.739Z,97102.44
2022-11-06T13:35:54.584Z,97097.72
2022-11-06T13:38:26.937Z,97075.81
2022-11-06T13:41:03.113Z,97073.03
2022-11-06T13:43:38.818Z,97062.34
2022-11-06T13:46:12.137Z,97065.56
2022-11-06T13:48:49.569Z,97058.50
2022-11-06T13:51:22.395Z,97045.19
2022-11-06T13:53:59.444Z,97031.88
2022-11-06T13:56:47.316Z,97021.19
2022-11-06T13:59:34.643Z,97018.44
2022-11-06T14:02:17.707Z,97013.03
2022-11-06T14:04:59.339Z,97013.72
2022-11-06T14:07:29.227Z,97010.94
2022-11-06T14:09:57.696Z,97005.53
2022-11-06T14:12:26.211Z,97001.91
2022-11-06T14:15:15.515Z,96998.44
2022-11-06T14:17:55.194Z,96989.56
2022-11-06T14:20:33.543Z,96988.59
2022-11-06T14:23:39.565Z,96991.25
2022-11-06T14:26:10.297Z,96987.63
2022-11-06T14:28:39.742Z,96999.00
2022-11-06T14:31:14.691Z,97002.47
2022-11-06T14:34:02.405Z,96991.09
2022-11-06T14:36:36.820Z,96991.25
2022-11-06T14:39:11.064Z,96997.34
2022-11-06T14:41:58.223Z,97005.25
2022-11-06T14:44:31.316Z,96993.88
2022-11-06T14:47:02.204Z,97000.81
2022-11-06T14:49:37.281Z,96987.78
2022-11-06T14:52:09.181Z,96984.31
2022-11-06T14:54:40.358Z,96989.56
2022-11-06T14:57:10.103Z,96979.03
2022-11-06T14:59:40.203Z,96980.84
2022-11-06T15:02:17.084Z,96977.38
2022-11-06T15:04:49.523Z,96977.38
2022-11-06T15:08:03.245Z,96977.38
2022-11-06T15:10:48.885Z,96980.97
2022-11-06T15:13:29.993Z,96975.69
2022-11-06T15:16:04.525Z,96974.03
2022-11-06T15:18:36.391Z,96976.53
2022-11-06T15:21:07.923Z,96971.38
2022-11-06T15:23:42.523Z,96969.03
2022-11-06T15:26:22.272Z,96972.38
2022-11-06T15:29:05.896Z,96981.25
2022-11-06T15:31:34.874Z,96987.34
2022-11-06T15:34:05.790Z,96975.28
2022-11-06T15:36:38.709Z,96990.13
2022-11-06T15:39:24.270Z,96994.56
2022-11-06T15:41:53.221Z,96986.78
2022-11-06T15:44:24.502Z,96987.75
2022-11-06T15:46:54.455Z,96986.94
2022-11-06T15:49:23.840Z,96977.34
2022-11-06T15:51:54.806Z,96973.88
2022-11-06T15:54:36.412Z,96973.88
2022-11-06T15:57:09.774Z,96974.84
2022-11-06T15:59:38.410Z,96975.69
2022-11-06T16:02:15.293Z,96967.91
2022-11-06T16:04:44.641Z,96980.13
2022-11-06T16:07:14.007Z,96990.91
2022-11-06T16:09:44.863Z,96986.63
2022-11-06T16:12:14.377Z,96990.91
2022-11-06T16:14:44.478Z,96996.19
2022-11-06T16:17:17.079Z,96993.56
2022-11-06T16:19:47.289Z,96993.81
2022-11-06T16:22:18.291Z,96992.72
2022-11-06T16:24:50.366Z,96999.09
2022-11-06T16:27:19.295Z,96997.16
2022-11-06T16:29:49.515Z,96994.78
2022-11-06T16:32:19.531Z,96987.59
2022-11-06T16:34:49.251Z,96992.16
2022-11-06T16:37:38.548Z,96981.75
2022-11-06T16:40:51.172Z,96986.88
2022-11-06T16:43:21.333Z,96988.69
2022-11-06T16:45:55.677Z,96980.91
2022-11-06T16:48:35.547Z,96973.00
2022-11-06T16:51:12.750Z,96981.75
2022-11-06T16:53:52.784Z,96980.22
2022-11-06T16:56:29.400Z,96978.41
2022-11-06T16:59:02.123Z,96983.81
2022-11-06T17:01:38.471Z,96991.72
2022-11-06T17:04:07.958Z,96992.44
2022-11-06T17:06:38.334Z,96984.53
2022-11-06T17:09:09.931Z,96988.41
2022-11-06T17:11:40.304Z,96986.47
2022-11-06T17:14:19.256Z,96996.19
2022-11-06T17:16:49.872Z,96991.72
2022-11-06T17:19:19.374Z,96986.47
2022-11-06T17:21:48.575Z,96982.31
2022-11-06T17:24:36.095Z,96976.88
2022-11-06T17:27:07.725Z,96987.44
2022-11-06T17:29:37.082Z,96987.56
2022-11-06T17:32:06.375Z,96995.34
2022-11-06T17:34:35.191Z,96990.06
2022-11-06T17:37:03.917Z,96985.91
2022-11-06T17:39:32.849Z,96988.41
2022-11-06T17:42:01.575Z,96981.47
2022-11-06T17:44:31.577Z,97004.22
2022-11-06T17:47:00.451Z,97004.34
2022-11-06T17:49:29.058Z,96998.38
2022-11-06T17:52:00.962Z,96999.34
2022-11-06T17:54:32.210Z,96988.69
2022-11-06T17:57:02.978Z,96992.28
2022-11-06T17:59:33.482Z,96993.25
2022-11-06T18:02:02.742Z,96984.38
2022-11-06T18:04:31.910Z,96982.72
2022-11-06T18:07:01.350Z,96991.44
2022-11-06T18:09:30.199Z,96993.94
2022-11-06T18:11:59.234Z,96998.25
2022-11-06T18:14:28.803Z,96994.09
2022-11-06T18:16:58.922Z,97009.75
2022-11-06T18:19:28.007Z,97008.38
2022-11-06T18:21:56.668Z,97009.47
2022-11-06T18:24:28.948Z,97015.84
2022-11-06T18:26:57.606Z,97013.91
2022-11-06T18:29:26.309Z,97008.06
2022-11-06T18:31:54.930Z,96997.53
2022-11-06T18:34:24.908Z,97006.41
2022-11-06T18:36:53.562Z,96994.19
2022-11-06T18:39:22.190Z,96997.66
2022-11-06T18:41:51.110Z,97003.06
2022-11-06T18:44:19.910Z,97000.31
2022-11-06T18:46:48.585Z,96996.84
2022-11-06T18:49:17.583Z,97002.25
2022-11-06T18:51:47.587Z,96999.47
2022-11-06T18:54:16.321Z,96999.78
2022-11-06T18:56:45.189Z,96995.47
2022-11-06T18:59:16.592Z,96994.63
2022-11-06T19:01:45.363Z,96999.59
2022-11-06T19:04:14.207Z,96991.69
2022-11-06T19:06:43.078Z,96992.69
2022-11-06T19:09:13.056Z,96995.47
2022-11-06T19:11:41.714Z,96980.50
2022-11-06T19:14:10.590Z,96996.97
2022-11-06T19:16:39.337Z,96999.59
2022-11-06T19:19:08.432Z,97003.78
2022-11-06T19:21:37.065Z,97002.81
2022-11-06T19:24:06.715Z,97002.25
2022-11-06T19:26:36.962Z,96999.78
2022-11-06T19:29:07.539Z,97007.50
2022-11-06T19:31:37.368Z,97018.03
2022-11-06T19:34:07.284Z,97025.94
2022-11-06T19:36:36.285Z,97020.69
2022-11-06T19:39:05.472Z,97013.63
2022-11-06T19:41:35.827Z,97023.31
2022-11-06T19:44:04.542Z,97018.22
2022-11-06T19:46:36.163Z,97028.59
2022-11-06T19:49:05.968Z,97028.59
2022-11-06T19:51:34.887Z,97022.47
2022-11-06T19:54:03.448Z,97027.75
2022-11-06T19:56:32.063Z,97027.63
2022-11-06T19:59:02.320Z,97035.00
2022-11-06T20:01:33.787Z,97028.88
2022-11-06T20:04:02.576Z,97021.81
2022-11-06T20:06:31.393Z,97020.69
2022-11-06T20:09:00.162Z,97039.44
2022-11-06T20:11:28.942Z,97045.53
2022-11-06T20:13:58.017Z,97050.22
2022-11-06T20:16:28.602Z,97063.28
2022-11-06T20:18:58.754Z,97050.09
2022-11-06T20:21:29.128Z,97059.09
2022-11-06T20:23:58.161Z,97066.16
2022-11-06T20:26:27.031Z,97058.84
2022-11-06T20:28:55.665Z,97073.81
2022-11-06T20:31:24.450Z,97063.28
2022-11-06T20:33:54.697Z,97072.97
2022-11-06T20:36:25.378Z,97071.44
2022-11-06T20:38:57.400Z,97068.53
2022-11-06T20:41:28.331Z,97058.97
2022-11-06T20:43:57.343Z,97057.16
2022-11-06T20:46:26.234Z,97066.16
2022-11-06T20:48:57.684Z,97054.66
2022-11-06T20:51:29.329Z,97059.94
2022-11-06T20:53:57.884Z,97059.94
2022-11-06T20:56:26.397Z,97065.34
2022-11-06T20:58:55.843Z,97067.00
2022-11-06T21:01:25.904Z,97071.31
2022-11-06T21:03:56.911Z,97083.50
2022-11-06T21:06:26.511Z,97077.53
2022-11-06T21:08:55.583Z,97077.41
2022-11-06T21:11:25.848Z,97078.25
2022-11-06T21:13:55.105Z,97086.16
2022-11-06T21:16:25.493Z,97094.19
2022-11-06T21:18:55.762Z,97095.03
2022-11-06T21:21:26.528Z,97097.78
2022-11-06T21:23:56.725Z,97092.66
2022-11-06T21:26:26.254Z,97092.38
2022-11-06T21:28:55.797Z,97091.69
2022-11-06T21:31:27.595Z,97103.19
2022-11-06T21:33:59.100Z,97105.69
2022-11-06T21:36:28.933Z,97102.22
2022-11-06T21:38:59.816Z,97104.16
2022-11-06T21:41:29.528Z,97110.13
2022-11-06T21:43:58.424Z,97111.91
2022-11-06T21:46:27.083Z,97111.22
2022-11-06T21:48:57.335Z,97116.50
2022-11-06T21:51:27.852Z,97136.03
2022-11-06T21:54:14.430Z,97136.03
2022-11-06T21:56:43.633Z,97135.19
2022-11-06T21:59:13.712Z,97134.34
2022-11-06T22:01:43.036Z,97140.84
2022-11-06T22:04:13.722Z,97140.84
2022-11-06T22:06:43.481Z,97156.09
2022-11-06T22:09:13.588Z,97160.50
2022-11-06T22:11:43.310Z,97164.94
2022-11-06T22:14:13.655Z,97170.09
2022-11-06T22:16:43.911Z,97164.81
2022-11-06T22:19:14.738Z,97172.00
2022-11-06T22:21:43.416Z,97164.81
2022-11-06T22:24:13.015Z,97156.66
2022-11-06T22:26:41.847Z,97163.59
2022-11-06T22:29:14.068Z,97164.44
2022-11-06T22:31:43.042Z,97159.28
2022-11-06T22:34:13.792Z,97157.34
2022-11-06T22:36:42.787Z,97162.75
2022-11-06T22:39:12.300Z,97165.41
2022-11-06T22:41:41.393Z,97170.66
2022-11-06T22:44:10.326Z,97163.59
2022-11-06T22:46:39.144Z,97161.91
2022-11-06T22:49:07.880Z,97158.47
2022-11-06T22:51:37.896Z,97147.22
2022-11-06T22:54:06.641Z,97147.78
2022-11-06T22:56:35.142Z,97145.16
2022-11-06T22:59:07.674Z,97156.78
2022-11-06T23:01:41.555Z,97164.56
2022-11-06T23:04:14.893Z,97158.19
2022-11-06T23:06:46.187Z,97167.91
2022-11-06T23:09:15.509Z,97158.47
2022-11-06T23:11:46.286Z,97154.84
2022-11-06T23:14:14.980Z,97158.47
2022-11-06T23:17:00.718Z,97156.53
2022-11-06T23:19:31.874Z,97149.72
2022-11-06T23:22:15.911Z,97162.88
2022-11-06T23:24:44.938Z,97160.25
2022-11-06T23:27:13.872Z,97157.50
2022-11-06T23:29:43.016Z,97148.75
2022-11-06T23:32:11.895Z,97154.03
2022-11-06T23:34:40.496Z,97154.84
2022-11-06T23:37:10.652Z,97160.25
2022-11-06T23:39:39.624Z,97160.25
2022-11-06T23:42:08.274Z,97159.16
2022-11-06T23:44:54.301Z,97166.22
2022-11-06T23:47:22.833Z,97174.13
2022-11-06T23:49:51.604Z,97175.09
2022-11-06T23:52:21.987Z,97175.09
2022-11-06T23:54:50.661Z,97171.63
2022-11-06T23:57:19.375Z,97165.41
2022-11-06T23:59:48.568Z,97171.63
